Time;durP1;ratioP1;P1;durP2;ratioP2;P2;SDS_P1;SDS_P2;PMS_P1;PMS_P2;Temp;Humidity;BMP_temperature;BMP_pressure;BME280_temperature;BME280_humidity;BME280_pressure;Samples;Min_cycle;Max_cycle;Signal;HPM_P1;HPM_P2
2021/09/07 00:01:24;;;;;;;10.18;5.67;;;;;;;;;;1891725;76;21102;-48
2021/09/07 00:03:53;;;;;;;10.63;6.40;;;;;;;;;;1891636;75;21020;-48
2021/09/07 00:06:21;;;;;;;9.93;5.97;;;;;;;;;;1891559;76;21327;-50
2021/09/07 00:08:50;;;;;;;9.18;5.70;;;;;;;;;;1891598;76;21141;-49
2021/09/07 00:11:20;;;;;;;10.40;6.05;;;;;;;;;;1891744;76;21097;-48
2021/09/07 00:13:50;;;;;;;11.30;5.72;;;;;;;;;;1891699;76;21083;-50
2021/09/07 00:16:19;;;;;;;9.80;5.47;;;;;;;;;;1891738;74;21047;-50
2021/09/07 00:18:48;;;;;;;13.55;5.40;;;;;;;;;;1891755;76;21090;-47
2021/09/07 00:21:17;;;;;;;11.35;6.03;;;;;;;;;;1891676;74;21036;-49
2021/09/07 00:23:46;;;;;;;9.38;5.33;;;;;;;;;;1891744;74;21060;-47
2021/09/07 00:26:14;;;;;;;9.93;5.15;;;;;;;;;;1891772;76;21067;-48
2021/09/07 00:28:43;;;;;;;9.93;6.10;;;;;;;;;;1891782;76;21089;-50
2021/09/07 00:31:12;;;;;;;12.35;7.40;;;;;;;;;;1891942;76;21101;-50
2021/09/07 00:33:41;;;;;;;10.63;5.40;;;;;;;;;;1891695;76;21137;-49
2021/09/07 00:36:10;;;;;;;12.15;6.05;;;;;;;;;;1891838;75;21024;-50
2021/09/07 00:38:38;;;;;;;10.60;6.17;;;;;;;;;;1891810;76;21131;-50
2021/09/07 00:41:08;;;;;;;13.25;6.15;;;;;;;;;;1891767;76;21032;-49
2021/09/07 00:43:38;;;;;;;12.37;6.17;;;;;;;;;;1891807;76;21016;-46
2021/09/07 00:46:07;;;;;;;23.15;6.50;;;;;;;;;;1891538;76;21123;-50
2021/09/07 00:48:36;;;;;;;14.13;6.15;;;;;;;;;;1891694;76;21044;-48
2021/09/07 00:51:05;;;;;;;15.68;6.72;;;;;;;;;;1891680;76;21044;-50
2021/09/07 00:53:35;;;;;;;14.03;6.92;;;;;;;;;;1891591;76;21036;-49
2021/09/07 00:56:04;;;;;;;12.90;6.83;;;;;;;;;;1891684;76;21521;-50
2021/09/07 00:58:35;;;;;;;15.35;6.37;;;;;;;;;;1891654;76;21094;-49
2021/09/07 01:01:03;;;;;;;9.30;5.22;;;;;;;;;;1891677;76;21094;-50
2021/09/07 01:03:33;;;;;;;15.50;5.95;;;;;;;;;;1891640;76;21032;-48
2021/09/07 01:06:02;;;;;;;12.40;5.95;;;;;;;;;;1891621;76;21044;-49
2021/09/07 01:08:32;;;;;;;17.17;6.42;;;;;;;;;;1891643;76;21052;-48
2021/09/07 01:11:02;;;;;;;10.95;6.03;;;;;;;;;;1891616;76;21043;-50
2021/09/07 01:13:31;;;;;;;12.60;6.40;;;;;;;;;;1891916;75;21240;-48
2021/09/07 01:16:03;;;;;;;13.43;6.60;;;;;;;;;;1891834;76;21055;-49
2021/09/07 01:18:33;;;;;;;11.25;5.97;;;;;;;;;;1891847;76;21049;-50
2021/09/07 01:21:05;;;;;;;11.15;5.60;;;;;;;;;;1891786;76;21141;-50
2021/09/07 01:23:31;;;;;;;11.95;6.12;;;;;;;;;;1891635;75;21481;-50
2021/09/07 01:26:00;;;;;;;11.88;5.85;;;;;;;;;;1891502;76;21311;-47
2021/09/07 01:28:31;;;;;;;12.70;5.97;;;;;;;;;;1891612;76;21110;-48
2021/09/07 01:31:00;;;;;;;11.73;5.75;;;;;;;;;;1891728;74;21466;-49
2021/09/07 01:33:29;;;;;;;10.25;5.15;;;;;;;;;;1891590;76;21036;-48
2021/09/07 01:35:58;;;;;;;10.80;5.42;;;;;;;;;;1891611;76;21040;-47
2021/09/07 01:38:28;;;;;;;11.05;6.50;;;;;;;;;;1891609;75;21109;-50
2021/09/07 01:40:57;;;;;;;9.08;5.80;;;;;;;;;;1891683;76;21046;-50
2021/09/07 01:43:26;;;;;;;10.38;6.20;;;;;;;;;;1891709;76;21008;-48
2021/09/07 01:45:55;;;;;;;16.65;6.67;;;;;;;;;;1891653;76;21119;-48
2021/09/07 01:48:24;;;;;;;13.62;6.00;;;;;;;;;;1891690;76;21028;-50
2021/09/07 01:50:53;;;;;;;13.48;6.47;;;;;;;;;;1891534;76;21044;-49
2021/09/07 01:53:22;;;;;;;11.68;6.53;;;;;;;;;;1891574;76;21110;-48
2021/09/07 01:55:52;;;;;;;10.63;6.30;;;;;;;;;;1872898;75;21099;-49
2021/09/07 01:58:22;;;;;;;11.03;5.97;;;;;;;;;;1872835;76;21054;-49
2021/09/07 02:00:51;;;;;;;10.08;5.70;;;;;;;;;;1872853;76;21171;-46
2021/09/07 02:03:21;;;;;;;10.58;6.22;;;;;;;;;;1872824;77;21081;-49
2021/09/07 02:05:51;;;;;;;11.40;6.78;;;;;;;;;;1872965;75;21109;-50
2021/09/07 02:08:19;;;;;;;12.20;6.70;;;;;;;;;;1872814;75;21042;-50
2021/09/07 02:10:49;;;;;;;11.18;6.40;;;;;;;;;;1872994;75;21034;-49
2021/09/07 02:13:18;;;;;;;12.10;6.05;;;;;;;;;;1872969;75;21041;-48
2021/09/07 02:15:48;;;;;;;12.33;6.40;;;;;;;;;;1872816;75;21092;-48
2021/09/07 02:18:17;;;;;;;17.87;6.70;;;;;;;;;;1873038;75;21154;-50
2021/09/07 02:20:47;;;;;;;11.18;5.92;;;;;;;;;;1872880;75;21073;-48
2021/09/07 02:23:16;;;;;;;13.70;5.65;;;;;;;;;;1872964;75;21041;-50
2021/09/07 02:25:46;;;;;;;12.33;5.33;;;;;;;;;;1872785;77;21022;-49
2021/09/07 02:28:15;;;;;;;11.63;5.75;;;;;;;;;;1872760;76;21107;-49
2021/09/07 02:30:44;;;;;;;11.10;5.90;;;;;;;;;;1872845;77;21096;-48
2021/09/07 02:33:15;;;;;;;11.45;5.80;;;;;;;;;;1872915;76;21053;-48
2021/09/07 02:35:44;;;;;;;13.78;6.62;;;;;;;;;;1872881;75;21034;-49
2021/09/07 02:38:13;;;;;;;10.38;5.92;;;;;;;;;;1872977;77;21046;-47
2021/09/07 02:40:43;;;;;;;13.50;6.62;;;;;;;;;;1872765;77;21089;-47
2021/09/07 02:43:12;;;;;;;11.18;5.53;;;;;;;;;;1872903;76;21095;-50
2021/09/07 02:45:42;;;;;;;16.05;7.47;;;;;;;;;;1872829;75;21150;-47
2021/09/07 02:48:11;;;;;;;12.93;7.20;;;;;;;;;;1872792;77;21089;-49
2021/09/07 02:50:40;;;;;;;17.90;6.42;;;;;;;;;;1872804;75;21042;-48
2021/09/07 02:53:09;;;;;;;13.65;5.97;;;;;;;;;;1872810;75;21041;-48
2021/09/07 02:55:39;;;;;;;12.65;6.75;;;;;;;;;;1872957;75;21065;-46
2021/09/07 02:58:09;;;;;;;14.43;6.90;;;;;;;;;;1873068;75;21037;-49
2021/09/07 03:00:38;;;;;;;13.00;6.35;;;;;;;;;;1872979;77;21045;-50
2021/09/07 03:03:07;;;;;;;16.48;6.62;;;;;;;;;;1873047;75;21041;-49
2021/09/07 03:05:37;;;;;;;12.45;6.22;;;;;;;;;;1872973;75;21569;-49
2021/09/07 03:08:07;;;;;;;16.60;7.15;;;;;;;;;;1872972;75;21215;-49
2021/09/07 03:10:36;;;;;;;18.60;7.75;;;;;;;;;;1872971;76;21038;-47
2021/09/07 03:13:06;;;;;;;11.50;5.67;;;;;;;;;;1873103;75;21041;-47
2021/09/07 03:15:35;;;;;;;14.20;6.72;;;;;;;;;;1873030;76;21005;-49
2021/09/07 03:18:05;;;;;;;12.45;6.83;;;;;;;;;;1873073;76;21050;-48
2021/09/07 03:20:34;;;;;;;14.98;6.85;;;;;;;;;;1872922;75;21009;-49
2021/09/07 03:23:03;;;;;;;17.10;7.35;;;;;;;;;;1873033;77;21046;-49
2021/09/07 03:25:32;;;;;;;19.30;6.45;;;;;;;;;;1872908;77;21025;-50
2021/09/07 03:28:02;;;;;;;24.98;8.75;;;;;;;;;;1872878;75;21018;-49
2021/09/07 03:30:32;;;;;;;25.00;9.85;;;;;;;;;;1872902;77;21135;-50
2021/09/07 03:33:01;;;;;;;14.70;6.80;;;;;;;;;;1872891;76;21166;-50
2021/09/07 03:35:31;;;;;;;8.08;5.30;;;;;;;;;;1872657;75;21161;-50
2021/09/07 03:38:00;;;;;;;11.50;5.72;;;;;;;;;;1873024;77;21062;-50
2021/09/07 03:40:29;;;;;;;12.00;5.20;;;;;;;;;;1873052;75;21021;-51
2021/09/07 03:42:58;;;;;;;14.70;5.10;;;;;;;;;;1873103;77;21041;-52
2021/09/07 03:45:28;;;;;;;8.53;5.30;;;;;;;;;;1872984;75;21026;-52
2021/09/07 03:47:57;;;;;;;9.58;5.30;;;;;;;;;;1873128;77;21038;-48
2021/09/07 03:50:26;;;;;;;12.23;5.08;;;;;;;;;;1873013;75;21099;-48
2021/09/07 03:52:56;;;;;;;12.70;5.00;;;;;;;;;;1872793;76;21053;-48
2021/09/07 03:55:25;;;;;;;13.85;5.70;;;;;;;;;;1881974;75;21068;-47
2021/09/07 03:57:54;;;;;;;7.53;4.75;;;;;;;;;;1891648;75;21036;-48
2021/09/07 04:00:23;;;;;;;9.95;5.30;;;;;;;;;;1891659;76;21036;-48
2021/09/07 04:02:53;;;;;;;11.12;4.70;;;;;;;;;;1891522;76;21051;-47
2021/09/07 04:05:23;;;;;;;12.07;5.10;;;;;;;;;;1891841;76;21114;-47
2021/09/07 04:07:52;;;;;;;11.30;4.60;;;;;;;;;;1891694;76;21102;-49
2021/09/07 04:10:22;;;;;;;16.85;5.28;;;;;;;;;;1891819;76;21474;-50
2021/09/07 04:12:52;;;;;;;11.78;4.97;;;;;;;;;;1891908;76;21032;-48
2021/09/07 04:15:22;;;;;;;8.00;4.80;;;;;;;;;;1891676;76;21105;-50
2021/09/07 04:17:52;;;;;;;14.23;4.78;;;;;;;;;;1891626;76;21048;-50
2021/09/07 04:20:22;;;;;;;12.78;4.70;;;;;;;;;;1891602;75;21068;-48
2021/09/07 04:22:51;;;;;;;13.28;5.53;;;;;;;;;;1891490;74;21071;-50
2021/09/07 04:25:20;;;;;;;10.08;5.40;;;;;;;;;;1891648;76;21093;-47
2021/09/07 04:27:48;;;;;;;10.45;5.15;;;;;;;;;;1891609;76;21044;-49
2021/09/07 04:30:17;;;;;;;12.90;4.85;;;;;;;;;;1891649;76;21036;-49
2021/09/07 04:32:46;;;;;;;13.18;6.42;;;;;;;;;;1891691;74;21004;-50
2021/09/07 04:35:15;;;;;;;15.55;7.83;;;;;;;;;;1891600;75;21040;-47
2021/09/07 04:37:43;;;;;;;10.32;5.78;;;;;;;;;;1891609;75;21131;-48
2021/09/07 04:40:12;;;;;;;8.68;5.62;;;;;;;;;;1891672;76;21004;-50
2021/09/07 04:42:41;;;;;;;8.80;5.22;;;;;;;;;;1891561;76;21169;-51
2021/09/07 04:45:10;;;;;;;17.87;5.95;;;;;;;;;;1891694;76;21044;-49
2021/09/07 04:47:40;;;;;;;17.98;6.03;;;;;;;;;;1891695;76;21040;-50
2021/09/07 04:50:10;;;;;;;24.82;10.00;;;;;;;;;;1891549;75;21106;-49
2021/09/07 04:52:39;;;;;;;27.95;10.18;;;;;;;;;;1891621;75;21055;-51
2021/09/07 04:55:08;;;;;;;20.43;8.93;;;;;;;;;;1891721;76;21063;-50
2021/09/07 04:57:37;;;;;;;38.42;12.63;;;;;;;;;;1891730;76;21025;-49
2021/09/07 05:00:06;;;;;;;37.13;14.33;;;;;;;;;;1891639;76;21089;-50
2021/09/07 05:02:36;;;;;;;63.98;21.95;;;;;;;;;;1891626;75;21098;-50
2021/09/07 05:05:08;;;;;;;45.17;18.10;;;;;;;;;;1891671;76;21114;-50
2021/09/07 05:07:37;;;;;;;56.08;18.55;;;;;;;;;;1891620;75;21040;-50
2021/09/07 05:10:06;;;;;;;37.85;15.38;;;;;;;;;;1891675;76;21036;-49
2021/09/07 05:12:35;;;;;;;38.65;13.58;;;;;;;;;;1891639;76;21113;-50
2021/09/07 05:15:04;;;;;;;32.58;12.65;;;;;;;;;;1891550;76;21056;-49
2021/09/07 05:17:32;;;;;;;42.50;13.05;;;;;;;;;;1891625;75;21090;-47
2021/09/07 05:20:01;;;;;;;29.72;12.88;;;;;;;;;;1891685;76;21067;-51
2021/09/07 05:22:30;;;;;;;28.95;12.73;;;;;;;;;;1891662;76;21040;-51
2021/09/07 05:25:01;;;;;;;28.57;12.73;;;;;;;;;;1891666;76;21078;-50
2021/09/07 05:27:29;;;;;;;25.45;11.20;;;;;;;;;;1891519;75;21501;-50
2021/09/07 05:29:58;;;;;;;19.87;10.38;;;;;;;;;;1891636;76;21167;-49
2021/09/07 05:32:27;;;;;;;22.93;9.53;;;;;;;;;;1891671;76;21016;-49
2021/09/07 05:34:55;;;;;;;18.20;8.10;;;;;;;;;;1891568;76;21040;-50
2021/09/07 05:37:24;;;;;;;12.75;7.12;;;;;;;;;;1891644;76;21048;-49
2021/09/07 05:39:53;;;;;;;15.88;7.83;;;;;;;;;;1891567;76;21118;-48
2021/09/07 05:42:22;;;;;;;10.00;6.90;;;;;;;;;;1891630;76;21008;-50
2021/09/07 05:44:50;;;;;;;10.95;6.95;;;;;;;;;;1891629;76;21102;-47
2021/09/07 05:47:20;;;;;;;12.88;6.95;;;;;;;;;;1891591;76;21181;-50
2021/09/07 05:49:49;;;;;;;23.20;13.05;;;;;;;;;;1891571;76;21008;-50
2021/09/07 05:52:17;;;;;;;12.25;8.23;;;;;;;;;;1891737;76;21133;-51
2021/09/07 05:54:46;;;;;;;11.12;7.00;;;;;;;;;;1891789;76;21020;-48
2021/09/07 05:57:15;;;;;;;10.93;6.62;;;;;;;;;;1891609;76;21056;-48
2021/09/07 05:59:44;;;;;;;14.30;7.47;;;;;;;;;;1891649;76;21036;-48
2021/09/07 06:02:13;;;;;;;10.30;7.15;;;;;;;;;;1891778;74;21040;-47
2021/09/07 06:04:42;;;;;;;13.62;7.62;;;;;;;;;;1891654;76;21055;-47
2021/09/07 06:07:11;;;;;;;10.03;7.12;;;;;;;;;;1891560;76;21013;-50
2021/09/07 06:09:39;;;;;;;12.03;7.10;;;;;;;;;;1891721;76;21087;-48
2021/09/07 06:12:08;;;;;;;23.95;8.20;;;;;;;;;;1891685;75;21040;-51
2021/09/07 06:14:37;;;;;;;13.68;8.40;;;;;;;;;;1891699;76;21040;-49
2021/09/07 06:17:09;;;;;;;16.82;8.45;;;;;;;;;;1891659;76;21102;-49
2021/09/07 06:19:38;;;;;;;10.68;7.10;;;;;;;;;;1891646;76;21118;-49
2021/09/07 06:22:07;;;;;;;11.93;7.30;;;;;;;;;;1891693;76;21036;-47
2021/09/07 06:24:36;;;;;;;9.35;6.70;;;;;;;;;;1891635;76;21106;-49
2021/09/07 06:27:05;;;;;;;15.23;7.50;;;;;;;;;;1891612;76;21001;-51
2021/09/07 06:29:33;;;;;;;9.40;6.53;;;;;;;;;;1891741;76;21032;-51
2021/09/07 06:32:02;;;;;;;9.70;6.45;;;;;;;;;;1891558;76;21157;-49
2021/09/07 06:34:31;;;;;;;8.08;6.35;;;;;;;;;;1891641;76;21093;-50
2021/09/07 06:37:00;;;;;;;10.15;7.75;;;;;;;;;;1891599;74;21098;-50
2021/09/07 06:39:29;;;;;;;8.60;6.22;;;;;;;;;;1891668;74;21040;-48
2021/09/07 06:41:58;;;;;;;8.75;6.33;;;;;;;;;;1891629;76;21043;-50
2021/09/07 06:44:26;;;;;;;7.55;6.05;;;;;;;;;;1891571;76;21105;-49
2021/09/07 06:46:55;;;;;;;11.70;7.42;;;;;;;;;;1891591;76;21102;-48
2021/09/07 06:49:24;;;;;;;12.65;8.85;;;;;;;;;;1891288;76;21103;-46
2021/09/07 06:51:54;;;;;;;8.93;4.55;;;;;;;;;;1891630;75;21060;-50
2021/09/07 06:54:22;;;;;;;13.20;8.85;;;;;;;;;;1891484;76;21084;-50
2021/09/07 06:56:52;;;;;;;8.73;6.12;;;;;;;;;;1891477;76;21064;-50
2021/09/07 06:59:20;;;;;;;9.55;5.75;;;;;;;;;;1891595;76;21114;-49
2021/09/07 07:01:49;;;;;;;9.25;4.78;;;;;;;;;;1891650;76;21032;-50
2021/09/07 07:04:18;;;;;;;5.53;3.27;;;;;;;;;;1891537;76;21028;-55
2021/09/07 07:06:47;;;;;;;7.30;5.58;;;;;;;;;;1891419;76;21032;-54
2021/09/07 07:09:16;;;;;;;9.25;4.85;;;;;;;;;;1891413;76;21040;-55
2021/09/07 07:11:44;;;;;;;4.80;3.22;;;;;;;;;;1891709;76;21004;-55
2021/09/07 07:14:13;;;;;;;6.08;4.50;;;;;;;;;;1891469;76;21036;-55
2021/09/07 07:16:42;;;;;;;7.40;4.58;;;;;;;;;;1891607;74;21087;-55
2021/09/07 07:19:11;;;;;;;13.00;5.65;;;;;;;;;;1891502;76;21036;-55
2021/09/07 07:21:40;;;;;;;10.90;4.60;;;;;;;;;;1891609;76;21044;-55
2021/09/07 07:24:09;;;;;;;8.83;4.60;;;;;;;;;;1891462;76;21052;-55
2021/09/07 07:26:38;;;;;;;3.67;2.95;;;;;;;;;;1891481;76;21044;-46
2021/09/07 07:29:07;;;;;;;4.65;3.70;;;;;;;;;;1889961;76;21040;-49
2021/09/07 07:31:35;;;;;;;6.65;4.87;;;;;;;;;;1891064;76;21063;-46
2021/09/07 07:34:04;;;;;;;8.18;4.53;;;;;;;;;;1890865;76;21032;-44
2021/09/07 07:36:36;;;;;;;7.35;5.12;;;;;;;;;;1890837;76;21079;-47
2021/09/07 07:39:05;;;;;;;5.42;3.87;;;;;;;;;;1890891;76;21024;-44
2021/09/07 07:41:34;;;;;;;7.15;4.22;;;;;;;;;;1890987;76;21121;-45
2021/09/07 07:44:03;;;;;;;5.42;3.08;;;;;;;;;;1890794;76;21028;-43
2021/09/07 07:46:32;;;;;;;6.22;3.92;;;;;;;;;;1890915;76;21145;-44
2021/09/07 07:49:00;;;;;;;8.55;3.60;;;;;;;;;;1890996;76;21036;-45
2021/09/07 07:51:29;;;;;;;9.63;5.40;;;;;;;;;;1890886;76;21134;-44
2021/09/07 07:53:58;;;;;;;6.33;3.52;;;;;;;;;;1891018;76;21140;-46
2021/09/07 07:56:27;;;;;;;4.20;3.25;;;;;;;;;;1887822;76;21062;-45
2021/09/07 07:58:56;;;;;;;4.35;3.75;;;;;;;;;;1872229;75;21049;-47
2021/09/07 08:01:25;;;;;;;6.20;3.20;;;;;;;;;;1872462;75;21097;-47
2021/09/07 08:03:54;;;;;;;8.70;3.98;;;;;;;;;;1872127;75;21034;-51
2021/09/07 08:06:29;;;;;;;6.65;4.78;;;;;;;;;;1870030;75;21104;-44
2021/09/07 08:09:02;;;;;;;6.92;4.30;;;;;;;;;;1870204;75;21467;-47
2021/09/07 08:11:36;;;;;;;5.12;3.12;;;;;;;;;;1870987;77;21519;-46
2021/09/07 08:14:12;;;;;;;10.05;6.70;;;;;;;;;;1892273;75;21098;-45
2021/09/07 08:16:47;;;;;;;4.83;3.30;;;;;;;;;;1899399;74;21129;-48
2021/09/07 08:19:21;;;;;;;2.05;1.82;;;;;;;;;;1904711;75;21016;-47
2021/09/07 08:21:57;;;;;;;6.75;5.87;;;;;;;;;;1904254;75;21011;-48
2021/09/07 08:24:33;;;;;;;6.30;4.67;;;;;;;;;;1884820;74;21032;-51
2021/09/07 08:27:05;;;;;;;4.10;2.15;;;;;;;;;;1872785;74;21052;-49
2021/09/07 08:29:34;;;;;;;3.60;2.52;;;;;;;;;;1871978;76;21064;-47
2021/09/07 08:32:03;;;;;;;3.58;2.35;;;;;;;;;;1871966;77;21319;-50
2021/09/07 08:34:32;;;;;;;3.22;1.90;;;;;;;;;;1885824;75;21046;-46
2021/09/07 08:37:02;;;;;;;3.33;2.02;;;;;;;;;;1904332;75;21043;-49
2021/09/07 08:39:30;;;;;;;2.35;1.50;;;;;;;;;;1904287;75;21023;-50
2021/09/07 08:41:59;;;;;;;2.27;1.40;;;;;;;;;;1904039;75;21094;-47
2021/09/07 08:44:28;;;;;;;3.17;1.87;;;;;;;;;;1897433;75;20999;-45
2021/09/07 08:46:57;;;;;;;2.40;1.70;;;;;;;;;;1871754;77;21007;-47
2021/09/07 08:49:26;;;;;;;2.67;1.75;;;;;;;;;;1871703;76;21039;-48
2021/09/07 08:51:55;;;;;;;3.42;1.77;;;;;;;;;;1872080;77;21137;-46
2021/09/07 08:54:24;;;;;;;3.85;1.50;;;;;;;;;;1897826;75;21079;-49
2021/09/07 08:56:53;;;;;;;1.98;1.55;;;;;;;;;;1904385;75;21190;-47
2021/09/07 08:59:22;;;;;;;5.97;1.87;;;;;;;;;;1897131;74;21094;-45
2021/09/07 09:01:56;;;;;;;5.58;2.35;;;;;;;;;;1895489;75;21386;-46
2021/09/07 09:04:35;;;;;;;6.95;1.65;;;;;;;;;;1871886;76;21001;-45
2021/09/07 09:07:01;;;;;;;6.35;1.50;;;;;;;;;;1882798;75;21007;-47
2021/09/07 09:09:37;;;;;;;4.15;2.02;;;;;;;;;;1904007;74;21067;-47
2021/09/07 09:12:07;;;;;;;2.85;1.70;;;;;;;;;;1890401;75;21352;-47
2021/09/07 09:14:37;;;;;;;6.28;2.00;;;;;;;;;;1890119;75;21056;-48
2021/09/07 09:17:19;;;;;;;3.15;2.40;;;;;;;;;;1886749;75;21415;-47
2021/09/07 09:20:02;;;;;;;6.83;3.12;;;;;;;;;;1889258;75;21045;-49
2021/09/07 09:22:41;;;;;;;2.75;2.10;;;;;;;;;;1872502;76;21086;-47
2021/09/07 09:25:23;;;;;;;7.58;2.77;;;;;;;;;;1881781;75;21021;-47
2021/09/07 09:27:59;;;;;;;2.12;1.40;;;;;;;;;;1889275;75;21035;-46
2021/09/07 09:30:30;;;;;;;1.85;1.40;;;;;;;;;;1889772;75;21171;-45
2021/09/07 09:33:02;;;;;;;3.45;2.42;;;;;;;;;;1883221;75;21330;-48
2021/09/07 09:35:30;;;;;;;5.45;2.10;;;;;;;;;;1886635;75;21085;-46
2021/09/07 09:38:00;;;;;;;8.70;1.90;;;;;;;;;;1900010;75;21174;-46
2021/09/07 09:40:29;;;;;;;6.53;4.05;;;;;;;;;;1903680;74;21529;-46
2021/09/07 09:42:58;;;;;;;3.47;1.98;;;;;;;;;;1904202;74;21192;-50
2021/09/07 09:45:31;;;;;;;1.70;1.40;;;;;;;;;;1904452;75;21027;-46
2021/09/07 09:48:00;;;;;;;6.72;1.67;;;;;;;;;;1904375;74;21168;-48
2021/09/07 09:50:28;;;;;;;6.58;3.25;;;;;;;;;;1903525;75;21125;-50
2021/09/07 09:52:57;;;;;;;10.95;5.03;;;;;;;;;;1904354;75;21137;-49
2021/09/07 09:55:26;;;;;;;5.35;2.33;;;;;;;;;;1904326;75;21075;-47
2021/09/07 09:57:55;;;;;;;4.60;2.35;;;;;;;;;;1903991;75;21109;-47
2021/09/07 10:00:24;;;;;;;3.17;1.90;;;;;;;;;;1904528;75;21089;-49
2021/09/07 10:02:58;;;;;;;5.35;2.35;;;;;;;;;;1904250;75;21118;-50
2021/09/07 10:05:26;;;;;;;4.47;2.12;;;;;;;;;;1904416;74;21336;-47
2021/09/07 10:07:55;;;;;;;5.15;1.82;;;;;;;;;;1904521;75;21019;-47
2021/09/07 10:10:24;;;;;;;3.17;2.20;;;;;;;;;;1904197;75;21047;-46
2021/09/07 10:12:56;;;;;;;10.10;2.10;;;;;;;;;;1904438;75;21043;-46
2021/09/07 10:15:34;;;;;;;4.70;1.85;;;;;;;;;;1885073;75;21471;-47
2021/09/07 10:18:42;;;;;;;3.65;1.65;;;;;;;;;;1874503;75;21150;-50
2021/09/07 10:20:52;;;;;;;9.55;2.98;;;;;;;;;;1891748;75;21035;-47
2021/09/07 10:25:58;;;;;;;2.83;1.52;;;;;;;;;;1902120;75;21383;-50
2021/09/07 10:28:37;;;;;;;3.00;2.27;;;;;;;;;;1904377;74;21089;-50
2021/09/07 10:31:07;;;;;;;3.37;1.92;;;;;;;;;;1903998;74;21027;-46
2021/09/07 10:33:37;;;;;;;6.62;2.80;;;;;;;;;;1904468;74;21060;-49
2021/09/07 10:36:06;;;;;;;5.60;2.35;;;;;;;;;;1904597;75;21070;-46
2021/09/07 10:38:39;;;;;;;4.22;2.05;;;;;;;;;;1904685;75;21019;-49
2021/09/07 10:41:08;;;;;;;5.70;2.33;;;;;;;;;;1904055;75;21071;-49
2021/09/07 10:43:55;;;;;;;4.65;1.60;;;;;;;;;;1903489;75;21067;-46
2021/09/07 10:46:43;;;;;;;8.50;2.45;;;;;;;;;;1903158;74;21103;-50
2021/09/07 10:49:25;;;;;;;2.25;1.72;;;;;;;;;;1903666;75;21129;-49
2021/09/07 10:52:04;;;;;;;3.92;2.00;;;;;;;;;;1904675;75;21446;-50
2021/09/07 10:54:33;;;;;;;2.85;1.87;;;;;;;;;;1903337;74;21055;-51
2021/09/07 10:57:02;;;;;;;3.62;2.05;;;;;;;;;;1904713;75;21071;-46
2021/09/07 10:59:47;;;;;;;8.85;3.80;;;;;;;;;;1904630;74;21095;-45
2021/09/07 11:02:34;;;;;;;3.65;2.12;;;;;;;;;;1904800;75;21566;-48
2021/09/07 11:05:04;;;;;;;4.22;1.25;;;;;;;;;;1904572;74;21074;-48
2021/09/07 11:07:43;;;;;;;2.52;1.70;;;;;;;;;;1904763;75;21512;-50
2021/09/07 11:10:19;;;;;;;2.70;1.55;;;;;;;;;;1904481;75;21504;-49
2021/09/07 11:12:52;;;;;;;3.62;2.30;;;;;;;;;;1904627;74;21070;-48
2021/09/07 11:15:22;;;;;;;3.83;2.02;;;;;;;;;;1893412;75;21027;-50
2021/09/07 11:17:52;;;;;;;1.42;1.32;;;;;;;;;;1872129;77;21054;-48
2021/09/07 11:20:21;;;;;;;2.77;2.10;;;;;;;;;;1872234;77;21039;-50
2021/09/07 11:22:51;;;;;;;2.85;1.42;;;;;;;;;;1872161;77;21663;-47
2021/09/07 11:25:20;;;;;;;3.47;2.10;;;;;;;;;;1871477;76;21093;-48
2021/09/07 11:27:50;;;;;;;3.85;2.22;;;;;;;;;;1872161;75;21031;-48
2021/09/07 11:30:26;;;;;;;4.92;1.92;;;;;;;;;;1871954;77;21082;-48
2021/09/07 11:32:56;;;;;;;4.45;2.33;;;;;;;;;;1872136;75;21027;-51
2021/09/07 11:35:25;;;;;;;1.60;1.20;;;;;;;;;;1872456;77;21023;-49
2021/09/07 11:37:58;;;;;;;2.45;1.87;;;;;;;;;;1872208;77;21044;-50
2021/09/07 11:40:27;;;;;;;2.72;1.90;;;;;;;;;;1872069;75;21015;-51
2021/09/07 11:42:56;;;;;;;7.25;2.12;;;;;;;;;;1872317;76;21097;-50
2021/09/07 11:45:26;;;;;;;3.80;1.60;;;;;;;;;;1872161;77;21094;-52
2021/09/07 11:47:55;;;;;;;2.42;1.50;;;;;;;;;;1872181;77;21524;-49
2021/09/07 11:50:27;;;;;;;5.17;1.90;;;;;;;;;;1872235;77;21134;-50
2021/09/07 11:52:56;;;;;;;2.52;1.75;;;;;;;;;;1872267;77;21474;-49
2021/09/07 11:55:41;;;;;;;8.40;4.75;;;;;;;;;;1872648;77;21109;-50
2021/09/07 11:58:11;;;;;;;5.67;1.57;;;;;;;;;;1874851;75;21560;-48
2021/09/07 12:00:39;;;;;;;8.05;2.50;;;;;;;;;;1891704;76;21100;-48
2021/09/07 12:03:15;;;;;;;1.47;1.30;;;;;;;;;;1891471;76;21100;-49
2021/09/07 12:05:51;;;;;;;2.52;1.52;;;;;;;;;;1891526;76;21621;-49
2021/09/07 12:08:20;;;;;;;7.03;1.98;;;;;;;;;;1890747;75;21073;-49
2021/09/07 12:10:55;;;;;;;3.42;1.82;;;;;;;;;;1891528;76;21006;-47
2021/09/07 12:13:24;;;;;;;3.37;1.60;;;;;;;;;;1891793;76;21112;-49
2021/09/07 12:15:53;;;;;;;2.20;1.60;;;;;;;;;;1891579;76;21124;-49
2021/09/07 12:18:32;;;;;;;4.95;2.00;;;;;;;;;;1891534;76;21088;-49
2021/09/07 12:21:05;;;;;;;3.80;1.80;;;;;;;;;;1890956;76;21057;-49
2021/09/07 12:23:34;;;;;;;5.50;2.00;;;;;;;;;;1890892;76;21532;-50
2021/09/07 12:26:03;;;;;;;2.33;1.62;;;;;;;;;;1891466;75;21159;-48
2021/09/07 12:28:32;;;;;;;4.72;2.22;;;;;;;;;;1891625;76;21024;-49
2021/09/07 12:31:10;;;;;;;3.45;2.33;;;;;;;;;;1891665;76;21026;-50
2021/09/07 12:33:44;;;;;;;3.17;2.15;;;;;;;;;;1891645;76;21026;-48
2021/09/07 12:36:12;;;;;;;4.28;1.52;;;;;;;;;;1890951;75;21030;-47
2021/09/07 12:38:41;;;;;;;4.42;2.00;;;;;;;;;;1891606;75;21037;-53
2021/09/07 12:41:11;;;;;;;2.55;1.90;;;;;;;;;;1891585;76;21069;-50
2021/09/07 12:43:42;;;;;;;2.62;1.90;;;;;;;;;;1891634;76;21465;-51
2021/09/07 12:46:12;;;;;;;3.95;2.00;;;;;;;;;;1891625;76;21046;-49
2021/09/07 12:48:42;;;;;;;6.05;2.00;;;;;;;;;;1890995;75;21062;-51
2021/09/07 12:51:11;;;;;;;8.88;3.80;;;;;;;;;;1891526;76;21096;-53
2021/09/07 12:53:44;;;;;;;2.10;1.67;;;;;;;;;;1891702;76;21046;-51
2021/09/07 12:56:12;;;;;;;2.67;1.60;;;;;;;;;;1891120;75;21535;-50
2021/09/07 12:58:44;;;;;;;2.05;1.62;;;;;;;;;;1889163;76;21417;-51
2021/09/07 13:01:12;;;;;;;6.53;1.82;;;;;;;;;;1872982;77;21473;-50
2021/09/07 13:03:41;;;;;;;5.28;1.57;;;;;;;;;;1872844;76;21099;-51
2021/09/07 13:06:10;;;;;;;8.78;2.70;;;;;;;;;;1872859;75;21019;-51
2021/09/07 13:08:39;;;;;;;9.05;2.60;;;;;;;;;;1872827;76;21114;-50
2021/09/07 13:11:09;;;;;;;5.00;3.33;;;;;;;;;;1872888;76;21039;-50
2021/09/07 13:13:37;;;;;;;5.00;2.10;;;;;;;;;;1872873;76;21004;-49
2021/09/07 13:16:07;;;;;;;4.05;2.22;;;;;;;;;;1872864;77;21410;-50
2021/09/07 13:18:36;;;;;;;4.47;2.45;;;;;;;;;;1872895;77;21097;-51
2021/09/07 13:21:07;;;;;;;4.35;2.60;;;;;;;;;;1872837;76;21289;-50
2021/09/07 13:23:36;;;;;;;9.58;5.37;;;;;;;;;;1872920;77;21413;-50
2021/09/07 13:26:05;;;;;;;3.95;1.82;;;;;;;;;;1872873;77;21106;-51
2021/09/07 13:28:33;;;;;;;3.80;1.90;;;;;;;;;;1872943;77;21141;-49
2021/09/07 13:31:02;;;;;;;4.08;2.50;;;;;;;;;;1872855;77;21112;-50
2021/09/07 13:33:31;;;;;;;3.05;1.82;;;;;;;;;;1872824;76;21144;-50
2021/09/07 13:36:00;;;;;;;2.27;1.77;;;;;;;;;;1872849;77;21042;-51
2021/09/07 13:38:28;;;;;;;10.03;2.40;;;;;;;;;;1872839;76;20999;-51
2021/09/07 13:40:57;;;;;;;7.62;2.77;;;;;;;;;;1872852;77;21094;-51
2021/09/07 13:43:26;;;;;;;6.87;2.65;;;;;;;;;;1872879;77;21043;-49
2021/09/07 13:45:55;;;;;;;8.93;3.90;;;;;;;;;;1872782;76;21137;-47
2021/09/07 13:48:23;;;;;;;9.53;2.22;;;;;;;;;;1872880;77;21086;-50
2021/09/07 13:50:52;;;;;;;5.30;2.27;;;;;;;;;;1872880;76;21109;-48
2021/09/07 13:53:21;;;;;;;3.47;1.85;;;;;;;;;;1872894;77;21035;-50
2021/09/07 13:55:50;;;;;;;3.20;2.15;;;;;;;;;;1872770;75;21039;-51
2021/09/07 13:58:18;;;;;;;4.37;2.12;;;;;;;;;;1872721;77;21043;-51
2021/09/07 14:00:47;;;;;;;6.12;2.58;;;;;;;;;;1887895;76;21128;-51
2021/09/07 14:03:16;;;;;;;5.80;2.10;;;;;;;;;;1891545;76;21038;-50
2021/09/07 14:05:45;;;;;;;3.62;2.08;;;;;;;;;;1891526;76;21019;-52
2021/09/07 14:08:14;;;;;;;2.77;2.00;;;;;;;;;;1891560;75;21077;-51
2021/09/07 14:10:43;;;;;;;5.22;2.45;;;;;;;;;;1891586;76;21140;-51
2021/09/07 14:13:11;;;;;;;6.22;2.77;;;;;;;;;;1891524;76;21116;-50
2021/09/07 14:15:40;;;;;;;6.20;2.00;;;;;;;;;;1891651;76;21026;-52
2021/09/07 14:18:08;;;;;;;2.47;1.98;;;;;;;;;;1891687;76;21488;-50
2021/09/07 14:20:37;;;;;;;4.70;1.90;;;;;;;;;;1891637;76;21090;-51
2021/09/07 14:23:06;;;;;;;4.25;1.55;;;;;;;;;;1891611;76;21020;-50
2021/09/07 14:25:35;;;;;;;3.58;1.72;;;;;;;;;;1891659;76;21019;-50
2021/09/07 14:28:04;;;;;;;3.60;1.80;;;;;;;;;;1891573;76;21054;-51
2021/09/07 14:30:33;;;;;;;4.85;2.70;;;;;;;;;;1891506;76;21034;-51
2021/09/07 14:33:02;;;;;;;3.00;2.55;;;;;;;;;;1891760;76;21038;-51
2021/09/07 14:35:30;;;;;;;7.10;2.72;;;;;;;;;;1891733;76;21026;-51
2021/09/07 14:37:59;;;;;;;7.60;3.27;;;;;;;;;;1891478;76;21042;-50
2021/09/07 14:40:28;;;;;;;5.35;2.45;;;;;;;;;;1891480;76;21006;-52
2021/09/07 14:42:57;;;;;;;4.58;2.08;;;;;;;;;;1891554;76;21006;-50
2021/09/07 14:45:26;;;;;;;6.78;2.25;;;;;;;;;;1891544;76;21115;-51
2021/09/07 14:47:55;;;;;;;4.47;2.35;;;;;;;;;;1891587;76;21070;-52
2021/09/07 14:50:23;;;;;;;3.60;2.02;;;;;;;;;;1891522;76;21120;-52
2021/09/07 14:52:52;;;;;;;3.95;2.35;;;;;;;;;;1891511;76;21042;-50
2021/09/07 14:55:20;;;;;;;4.53;2.58;;;;;;;;;;1891645;76;21080;-51